Time;durP1;ratioP1;P1;durP2;ratioP2;P2;SDS_P1;SDS_P2;PMS_P1;PMS_P2;Temp;Humidity;BMP_temperature;BMP_pressure;BME280_temperature;BME280_humidity;BME280_pressure;Samples;Min_cycle;Max_cycle;Signal;HPM_P1;HPM_P2
2023/09/30 00:00:53;;;;;;;5.90;3.00;;;;;;;21.22;54.95;102441.06;4966566;28;20034;-71
2023/09/30 00:03:18;;;;;;;5.50;2.87;;;;;;;21.21;55.11;102434.91;4968382;28;20551;-71
2023/09/30 00:05:43;;;;;;;7.77;2.63;;;;;;;21.20;54.57;102436.72;4968365;28;20456;-71
2023/09/30 00:08:09;;;;;;;6.90;3.08;;;;;;;21.21;54.60;102442.88;4966486;28;20272;-71
2023/09/30 00:10:34;;;;;;;5.63;2.40;;;;;;;21.22;54.89;102435.75;4967364;28;20026;-72
2023/09/30 00:12:59;;;;;;;6.15;2.67;;;;;;;21.21;54.79;102440.22;4966328;28;20031;-71
2023/09/30 00:15:25;;;;;;;6.00;2.75;;;;;;;21.20;54.96;102441.16;4967601;28;20480;-71
2023/09/30 00:17:50;;;;;;;7.13;2.53;;;;;;;21.19;54.99;102442.97;4968179;28;20026;-71
2023/09/30 00:20:15;;;;;;;7.28;2.75;;;;;;;21.20;54.84;102443.81;4967312;28;20125;-71
2023/09/30 00:22:41;;;;;;;5.53;2.60;;;;;;;21.20;54.66;102449.13;4967216;28;20391;-72
2023/09/30 00:25:07;;;;;;;7.35;2.97;;;;;;;21.18;54.75;102451.03;4965427;28;20031;-72
2023/09/30 00:27:32;;;;;;;5.90;2.85;;;;;;;21.18;54.77;102441.25;4963989;28;20538;-72
2023/09/30 00:29:58;;;;;;;6.85;3.05;;;;;;;21.16;54.52;102435.22;4964587;28;20098;-75
2023/09/30 00:32:23;;;;;;;6.82;2.60;;;;;;;21.18;54.72;102427.16;4964933;28;20559;-71
2023/09/30 00:34:48;;;;;;;6.35;2.45;;;;;;;21.19;54.97;102428.88;4963426;28;20046;-73
2023/09/30 00:37:14;;;;;;;5.15;2.55;;;;;;;21.18;54.62;102443.91;4964519;28;20443;-71
2023/09/30 00:39:39;;;;;;;5.82;2.85;;;;;;;21.18;54.58;102467.78;4947007;28;21088;-71
2023/09/30 00:42:05;;;;;;;6.07;2.60;;;;;;;21.18;54.77;102466.94;4964177;28;20039;-70
2023/09/30 00:44:30;;;;;;;5.50;2.67;;;;;;;21.16;54.58;102459.09;4964323;28;20047;-70
2023/09/30 00:46:56;;;;;;;5.80;2.55;;;;;;;21.17;54.64;102459.94;4964455;28;20791;-71
2023/09/30 00:49:25;;;;;;;7.65;2.88;;;;;;;21.17;54.71;102451.97;4962125;28;20480;-71
2023/09/30 00:51:54;;;;;;;6.22;3.00;;;;;;;21.16;54.36;102443.19;4946670;28;20138;-71
2023/09/30 00:54:24;;;;;;;5.88;2.63;;;;;;;21.16;54.74;102437.03;4964154;28;20042;-72
2023/09/30 00:56:55;;;;;;;7.13;2.92;;;;;;;21.15;54.73;102445.94;4963869;28;20118;-71
2023/09/30 00:59:21;;;;;;;5.28;2.63;;;;;;;21.15;54.48;102459.19;4964381;28;20038;-72
2023/09/30 01:01:47;;;;;;;6.35;2.78;;;;;;;21.14;54.56;102463.66;4964238;28;20412;-71
2023/09/30 01:04:12;;;;;;;5.47;2.95;;;;;;;21.14;54.41;102466.31;4963635;28;20038;-71
2023/09/30 01:06:39;;;;;;;4.93;2.42;;;;;;;21.14;54.71;102461.00;4963986;28;20034;-71
2023/09/30 01:09:04;;;;;;;6.47;2.65;;;;;;;21.14;54.62;102460.13;4963766;28;20030;-72
2023/09/30 01:11:30;;;;;;;5.63;2.95;;;;;;;21.14;54.42;102460.13;4963892;28;20045;-72
2023/09/30 01:13:55;;;;;;;5.95;2.92;;;;;;;21.14;54.62;102468.97;4963613;28;20955;-71
2023/09/30 01:16:21;;;;;;;5.50;2.65;;;;;;;21.14;54.25;102468.09;4946481;28;20039;-71
2023/09/30 01:18:46;;;;;;;6.13;2.67;;;;;;;21.13;54.26;102475.19;4963841;28;20042;-71
2023/09/30 01:21:12;;;;;;;6.97;2.80;;;;;;;21.12;54.57;102477.97;4965253;28;20074;-72
2023/09/30 01:23:43;;;;;;;5.90;2.55;;;;;;;21.13;54.61;102491.13;4963119;28;20069;-71
2023/09/30 01:26:12;;;;;;;6.30;3.20;;;;;;;21.13;54.54;102490.28;4963865;28;20031;-70
2023/09/30 01:28:37;;;;;;;5.90;2.70;;;;;;;21.13;54.25;102508.84;4931168;28;20035;-70
2023/09/30 01:31:04;;;;;;;8.05;2.72;;;;;;;21.11;54.13;102503.63;4963546;28;20039;-71
2023/09/30 01:33:29;;;;;;;6.47;2.78;;;;;;;21.12;54.09;102504.47;4965764;28;20034;-69
2023/09/30 01:35:55;;;;;;;4.75;2.53;;;;;;;21.10;54.15;102498.44;4963215;28;20039;-71
2023/09/30 01:38:20;;;;;;;6.53;2.97;;;;;;;21.12;54.47;102502.66;4963609;28;20031;-74
2023/09/30 01:40:46;;;;;;;6.80;2.80;;;;;;;21.11;54.10;102498.31;4961769;28;20472;-72
2023/09/30 01:43:15;;;;;;;5.60;2.58;;;;;;;21.10;53.77;102493.13;4963270;28;20062;-73
2023/09/30 01:45:41;;;;;;;6.05;2.72;;;;;;;21.10;53.92;102482.53;4929049;28;20022;-73
2023/09/30 01:48:10;;;;;;;6.68;2.70;;;;;;;21.10;53.98;102479.88;4963883;28;20542;-73
2023/09/30 01:50:39;;;;;;;5.47;2.67;;;;;;;21.09;53.88;102472.88;4963140;28;20030;-72
2023/09/30 01:53:09;;;;;;;6.00;2.63;;;;;;;21.08;53.95;102479.97;4963256;28;20147;-72
2023/09/30 01:55:36;;;;;;;5.32;2.65;;;;;;;21.08;54.11;102479.97;4962855;28;20057;-72
2023/09/30 01:58:01;;;;;;;6.03;2.80;;;;;;;21.09;53.58;102484.31;4946424;28;20041;-73
2023/09/30 02:00:28;;;;;;;6.50;3.05;;;;;;;21.08;54.04;102489.72;4962590;28;20030;-72
2023/09/30 02:02:55;;;;;;;6.28;2.75;;;;;;;21.06;53.73;102492.50;4963614;28;20043;-73
2023/09/30 02:05:22;;;;;;;5.25;2.53;;;;;;;21.08;53.88;102484.41;4963509;28;20400;-72
2023/09/30 02:07:48;;;;;;;6.00;2.45;;;;;;;21.07;53.76;102478.28;4962282;28;20030;-73
2023/09/30 02:10:13;;;;;;;4.95;2.50;;;;;;;21.07;53.78;102488.88;4962967;28;20411;-73
2023/09/30 02:12:38;;;;;;;6.37;2.80;;;;;;;21.06;53.46;102487.19;4961939;28;20146;-73
2023/09/30 02:15:04;;;;;;;6.47;2.67;;;;;;;21.07;53.72;102490.69;4962847;28;20690;-73
2023/09/30 02:17:31;;;;;;;4.70;2.50;;;;;;;21.06;53.73;102488.97;4962856;28;20034;-72
2023/09/30 02:19:56;;;;;;;6.25;2.85;;;;;;;21.05;53.74;102492.59;4961458;28;20034;-73
2023/09/30 02:22:23;;;;;;;7.67;2.53;;;;;;;21.05;53.64;102488.13;4963195;28;20031;-71
2023/09/30 02:24:49;;;;;;;6.30;2.22;;;;;;;21.04;53.61;102497.03;4962853;28;20264;-73
2023/09/30 02:27:14;;;;;;;6.37;2.50;;;;;;;21.05;53.27;102492.59;4961636;28;20479;-72
2023/09/30 02:29:39;;;;;;;6.50;2.90;;;;;;;21.05;53.71;102487.31;4962565;28;20256;-72
2023/09/30 02:32:04;;;;;;;5.57;2.63;;;;;;;21.04;53.64;102478.47;4963475;28;20323;-72
2023/09/30 02:34:30;;;;;;;6.23;2.80;;;;;;;21.05;53.40;102484.66;4961663;28;20288;-74
2023/09/30 02:36:55;;;;;;;4.30;2.30;;;;;;;21.03;53.72;102482.09;4962386;28;20412;-72
2023/09/30 02:39:21;;;;;;;5.03;2.35;;;;;;;21.04;53.51;102482.94;4962151;28;20117;-71
2023/09/30 02:41:46;;;;;;;6.28;3.00;;;;;;;21.02;53.42;102486.53;4961740;28;20491;-72
2023/09/30 02:44:12;;;;;;;3.97;2.10;;;;;;;21.03;53.25;102490.06;4961978;28;20030;-74
2023/09/30 02:46:38;;;;;;;4.82;2.30;;;;;;;21.02;53.33;102475.94;4962081;28;20666;-73
2023/09/30 02:49:03;;;;;;;5.90;2.75;;;;;;;21.02;53.06;102470.63;4961674;28;20039;-73
2023/09/30 02:51:29;;;;;;;4.55;2.33;;;;;;;21.03;53.10;102476.81;4962809;28;20065;-72
2023/09/30 02:53:55;;;;;;;5.55;2.65;;;;;;;21.02;53.18;102477.75;4962162;28;20039;-71
2023/09/30 02:56:20;;;;;;;6.80;2.88;;;;;;;21.01;53.27;102473.38;4943512;28;20057;-72
2023/09/30 02:58:46;;;;;;;4.82;2.50;;;;;;;21.00;52.98;102472.53;4961904;28;20046;-71
2023/09/30 03:01:18;;;;;;;5.75;2.60;;;;;;;21.00;53.29;102469.91;4961791;28;20042;-72
2023/09/30 03:03:44;;;;;;;4.90;2.67;;;;;;;20.99;53.23;102483.25;4961218;28;20049;-71
2023/09/30 03:06:10;;;;;;;5.57;3.03;;;;;;;21.00;53.19;102484.97;4961872;28;20035;-72
2023/09/30 03:08:36;;;;;;;5.18;2.67;;;;;;;20.99;52.90;102492.03;4962189;28;20492;-71
2023/09/30 03:11:02;;;;;;;5.38;2.65;;;;;;;21.00;52.99;102490.25;4960933;28;20041;-71
2023/09/30 03:13:27;;;;;;;4.90;2.42;;;;;;;21.00;53.25;102491.09;4944194;28;20495;-73
2023/09/30 03:15:52;;;;;;;5.38;2.42;;;;;;;20.99;52.85;102486.75;4961413;28;20034;-71
2023/09/30 03:18:22;;;;;;;6.13;2.67;;;;;;;20.98;53.17;102490.38;4962702;28;20030;-72
2023/09/30 03:20:50;;;;;;;6.03;2.45;;;;;;;20.98;53.04;102492.16;4961874;28;20041;-73
2023/09/30 03:23:16;;;;;;;6.72;2.63;;;;;;;20.98;52.83;102482.41;4960700;28;20567;-71
2023/09/30 03:25:42;;;;;;;5.43;2.67;;;;;;;20.98;53.20;102474.47;4961608;28;20041;-71
2023/09/30 03:28:08;;;;;;;4.82;2.42;;;;;;;20.97;52.91;102467.44;4962360;28;20107;-73
2023/09/30 03:30:34;;;;;;;5.97;2.87;;;;;;;20.97;53.09;102453.34;4961235;28;20403;-71
2023/09/30 03:32:59;;;;;;;5.47;2.60;;;;;;;20.97;53.01;102462.16;4961862;28;20296;-72
2023/09/30 03:35:25;;;;;;;4.97;2.33;;;;;;;20.96;53.36;102459.59;4961585;28;20472;-73
2023/09/30 03:37:50;;;;;;;5.13;2.60;;;;;;;20.96;53.08;102460.44;4961483;28;20500;-73
2023/09/30 03:40:19;;;;;;;7.57;2.83;;;;;;;20.96;53.06;102462.25;4960618;28;20038;-72
2023/09/30 03:42:47;;;;;;;5.03;2.72;;;;;;;20.95;52.78;102453.47;4961959;28;20054;-72
2023/09/30 03:45:13;;;;;;;6.38;2.70;;;;;;;20.95;52.95;102465.84;4960525;28;20412;-73
2023/09/30 03:47:40;;;;;;;5.53;3.08;;;;;;;20.94;53.07;102465.00;4961515;28;20034;-71
2023/09/30 03:50:13;;;;;;;5.25;2.70;;;;;;;20.95;52.78;102479.09;4961483;28;20026;-71
2023/09/30 03:52:39;;;;;;;5.15;2.47;;;;;;;20.94;52.78;102482.72;4960607;28;20455;-71
2023/09/30 03:55:05;;;;;;;5.07;2.80;;;;;;;20.93;52.88;102476.56;4961456;28;20031;-71
2023/09/30 03:57:36;;;;;;;5.65;2.67;;;;;;;20.93;52.94;102465.13;4961983;28;20098;-71
2023/09/30 04:00:05;;;;;;;4.82;2.70;;;;;;;20.93;52.60;102455.34;4960843;28;20077;-71
2023/09/30 04:02:31;;;;;;;4.93;2.30;;;;;;;20.91;52.81;102461.72;4961771;28;20035;-72
2023/09/30 04:04:57;;;;;;;6.20;2.70;;;;;;;20.93;52.84;102463.28;4943673;28;20480;-72
2023/09/30 04:07:27;;;;;;;4.55;2.35;;;;;;;20.92;52.75;102463.41;4942522;28;20031;-73
2023/09/30 04:09:56;;;;;;;4.93;2.53;;;;;;;20.91;53.08;102464.38;4961063;28;20491;-72
2023/09/30 04:12:23;;;;;;;5.38;2.55;;;;;;;20.90;52.93;102463.50;4960649;28;20941;-74
2023/09/30 04:14:49;;;;;;;6.50;2.78;;;;;;;20.90;52.92;102466.16;4961347;28;20049;-72
2023/09/30 04:17:14;;;;;;;4.97;2.50;;;;;;;20.92;52.96;102460.75;4961092;28;20031;-71
2023/09/30 04:19:40;;;;;;;4.93;2.58;;;;;;;20.90;52.41;102467.97;4945233;28;20033;-71
2023/09/30 04:22:05;;;;;;;5.78;2.92;;;;;;;20.91;52.82;102469.69;4965071;28;20480;-71
2023/09/30 04:24:30;;;;;;;5.40;2.55;;;;;;;20.91;52.44;102465.22;4965331;28;20059;-71
2023/09/30 04:27:02;;;;;;;5.95;2.85;;;;;;;20.91;52.67;102459.91;4963866;28;20038;-71
2023/09/30 04:29:29;;;;;;;5.28;2.47;;;;;;;20.91;52.92;102461.72;4964651;28;20031;-72
2023/09/30 04:31:54;;;;;;;5.22;2.60;;;;;;;20.89;52.94;102469.78;4964654;28;20494;-71
2023/09/30 04:34:21;;;;;;;5.55;2.53;;;;;;;20.90;52.73;102463.50;4964066;28;20038;-70
2023/09/30 04:36:47;;;;;;;5.45;2.78;;;;;;;20.89;52.56;102466.28;4965035;28;20070;-71
2023/09/30 04:39:13;;;;;;;4.78;2.65;;;;;;;20.90;52.62;102473.28;4965069;28;20047;-71
2023/09/30 04:41:41;;;;;;;4.82;2.47;;;;;;;20.88;52.49;102477.84;4963882;28;20037;-72
2023/09/30 04:44:09;;;;;;;5.47;2.50;;;;;;;20.88;52.42;102477.84;4965136;28;20102;-71
2023/09/30 04:46:45;;;;;;;5.32;2.65;;;;;;;20.88;52.54;102480.47;4964977;28;20472;-72
2023/09/30 04:49:14;;;;;;;5.88;2.70;;;;;;;20.88;52.46;102481.31;4965211;28;20035;-71
2023/09/30 04:51:39;;;;;;;6.90;2.35;;;;;;;20.88;52.40;102469.88;4967741;28;20039;-71
2023/09/30 04:54:06;;;;;;;5.57;2.55;;;;;;;20.87;52.54;102471.69;4968151;28;20035;-72
2023/09/30 04:56:32;;;;;;;5.53;3.00;;;;;;;20.88;52.39;102483.97;4967182;28;20055;-72
2023/09/30 04:58:58;;;;;;;5.38;2.50;;;;;;;20.86;52.50;102487.69;4966209;28;20480;-72
2023/09/30 05:01:24;;;;;;;5.32;2.50;;;;;;;20.86;52.35;102490.34;4965894;28;20074;-73
2023/09/30 05:03:50;;;;;;;7.65;2.80;;;;;;;20.87;52.21;102497.31;4966192;28;20174;-72
2023/09/30 05:06:15;;;;;;;5.18;2.53;;;;;;;20.85;52.29;102492.13;4968522;28;20500;-73
2023/09/30 05:08:41;;;;;;;5.05;2.80;;;;;;;20.87;52.11;102499.97;4967291;28;20034;-72
2023/09/30 05:11:07;;;;;;;5.55;2.50;;;;;;;20.86;52.37;102498.28;4969073;28;20035;-71
2023/09/30 05:13:33;;;;;;;6.75;2.88;;;;;;;20.86;52.20;102495.66;4948475;28;20031;-71
2023/09/30 05:16:00;;;;;;;5.22;2.75;;;;;;;20.83;52.02;102499.34;4964452;28;20034;-72
2023/09/30 05:18:25;;;;;;;5.57;2.40;;;;;;;20.83;52.22;102497.53;4965096;28;20035;-72
2023/09/30 05:20:51;;;;;;;4.53;2.13;;;;;;;20.84;52.16;102498.41;4963560;28;20046;-72
2023/09/30 05:23:17;;;;;;;5.65;3.15;;;;;;;20.85;52.18;102494.78;4963700;28;20322;-71
2023/09/30 05:25:43;;;;;;;4.82;2.35;;;;;;;20.84;52.09;102493.09;4963317;28;20145;-71
2023/09/30 05:28:09;;;;;;;5.72;2.65;;;;;;;20.83;52.20;102499.34;4963820;28;20138;-72
2023/09/30 05:30:35;;;;;;;5.28;2.60;;;;;;;20.83;52.15;102508.13;4961669;28;20030;-71
2023/09/30 05:33:01;;;;;;;4.57;2.55;;;;;;;20.82;52.13;102501.16;4963910;28;20027;-71
2023/09/30 05:35:27;;;;;;;4.80;2.58;;;;;;;20.82;51.85;102508.22;4964317;28;20122;-72
2023/09/30 05:37:53;;;;;;;5.22;2.45;;;;;;;20.82;51.92;102509.09;4962395;28;20400;-71
2023/09/30 05:40:29;;;;;;;5.03;2.60;;;;;;;20.82;51.83;102509.09;4962744;28;20031;-71
2023/09/30 05:42:59;;;;;;;5.85;2.72;;;;;;;20.80;51.78;102502.19;4963150;28;20034;-72
2023/09/30 05:45:26;;;;;;;4.80;2.58;;;;;;;20.81;52.04;102509.19;4962966;28;20121;-71
2023/09/30 05:47:53;;;;;;;5.70;2.60;;;;;;;20.81;51.73;102519.78;4963027;28;20035;-72
2023/09/30 05:50:24;;;;;;;4.13;2.28;;;;;;;20.80;52.11;102523.38;4961198;28;20093;-72
2023/09/30 05:52:51;;;;;;;4.72;2.20;;;;;;;20.79;51.84;102514.59;4962984;28;20092;-73
2023/09/30 05:55:20;;;;;;;6.03;2.65;;;;;;;20.80;52.03;102521.56;4963255;28;20404;-72
2023/09/30 05:57:49;;;;;;;5.50;2.38;;;;;;;20.80;51.85;102515.44;4962035;28;20050;-72
2023/09/30 06:00:35;;;;;;;6.28;2.67;;;;;;;20.80;51.86;102528.69;4962400;28;20037;-71
2023/09/30 06:03:00;;;;;;;5.45;2.60;;;;;;;20.78;51.94;102526.13;4962208;28;20073;-73
2023/09/30 06:05:29;;;;;;;4.80;2.60;;;;;;;20.80;52.01;102523.38;4963673;28;20504;-73
2023/09/30 06:07:55;;;;;;;5.18;2.72;;;;;;;20.80;51.94;102520.72;4964728;28;20026;-71
2023/09/30 06:10:20;;;;;;;4.78;2.55;;;;;;;20.78;52.30;102520.84;4962735;28;20027;-70
2023/09/30 06:12:54;;;;;;;5.18;2.47;;;;;;;20.76;52.65;102521.88;4963916;28;20027;-72
2023/09/30 06:15:25;;;;;;;5.20;2.58;;;;;;;20.75;52.55;102523.69;4964508;28;20105;-70
2023/09/30 06:17:51;;;;;;;5.65;2.60;;;;;;;20.72;52.35;102523.06;4945905;28;20393;-72
2023/09/30 06:20:18;;;;;;;6.68;3.05;;;;;;;20.70;52.59;102525.78;4960398;28;20145;-72
2023/09/30 06:22:47;;;;;;;6.50;2.83;;;;;;;20.69;52.69;102523.25;4961973;28;20043;-71
2023/09/30 06:25:16;;;;;;;5.47;2.40;;;;;;;20.69;53.05;102518.78;4961987;28;20042;-71
2023/09/30 06:27:42;;;;;;;4.35;2.25;;;;;;;20.70;52.99;102527.59;4961966;28;20499;-72
2023/09/30 06:30:09;;;;;;;5.25;2.60;;;;;;;20.68;53.09;102519.75;4962595;28;20078;-74
2023/09/30 06:32:35;;;;;;;4.30;2.35;;;;;;;20.69;53.27;102516.13;4963447;28;20053;-72
2023/09/30 06:35:02;;;;;;;5.72;2.50;;;;;;;20.69;53.17;102517.94;4960862;28;20115;-72
2023/09/30 06:37:29;;;;;;;5.70;2.75;;;;;;;20.68;53.72;102524.19;4961830;28;20037;-73
2023/09/30 06:39:55;;;;;;;5.07;2.38;;;;;;;20.69;53.77;102529.38;4961737;28;20035;-72
2023/09/30 06:42:21;;;;;;;6.85;2.70;;;;;;;20.69;53.70;102521.44;4945302;28;20033;-72
2023/09/30 06:44:46;;;;;;;6.53;2.90;;;;;;;20.68;53.80;102524.19;4962253;28;20027;-73
2023/09/30 06:47:12;;;;;;;5.18;2.22;;;;;;;20.69;53.75;102526.75;4962462;28;20081;-71
2023/09/30 06:49:37;;;;;;;4.93;2.40;;;;;;;20.69;53.84;102529.38;4961900;28;20146;-72
2023/09/30 06:52:03;;;;;;;5.68;2.85;;;;;;;20.69;53.75;102534.69;4963819;28;20121;-71
2023/09/30 06:54:28;;;;;;;4.95;2.35;;;;;;;20.68;53.90;102533.00;4946449;28;20125;-72
2023/09/30 06:56:54;;;;;;;5.25;2.47;;;;;;;20.70;53.99;102547.00;4944299;28;20586;-71
2023/09/30 06:59:19;;;;;;;4.40;2.10;;;;;;;20.72;53.70;102560.13;4963469;28;20895;-72
2023/09/30 07:01:45;;;;;;;4.28;2.15;;;;;;;20.72;54.08;102566.28;4961320;28;20026;-73
2023/09/30 07:04:11;;;;;;;6.35;2.70;;;;;;;20.74;54.32;102558.22;4962869;28;20031;-72
2023/09/30 07:06:37;;;;;;;6.65;2.40;;;;;;;20.75;54.14;102566.06;4946663;28;20035;-73
2023/09/30 07:09:02;;;;;;;5.90;2.30;;;;;;;20.74;54.05;102574.13;4961420;28;20034;-73
2023/09/30 07:11:33;;;;;;;5.03;2.30;;;;;;;20.75;54.12;102573.19;4962421;28;20169;-71
2023/09/30 07:13:58;;;;;;;4.63;2.25;;;;;;;20.77;54.15;102579.22;4961908;28;20516;-70
2023/09/30 07:16:24;;;;;;;4.60;2.30;;;;;;;20.76;54.28;102573.09;4959750;28;20049;-71
2023/09/30 07:18:50;;;;;;;5.05;2.30;;;;;;;20.78;54.52;102571.19;4944043;28;20030;-72
2023/09/30 07:21:15;;;;;;;4.35;2.10;;;;;;;20.81;54.74;102573.63;4961899;28;20077;-71
2023/09/30 07:23:41;;;;;;;7.97;2.53;;;;;;;20.82;54.47;102578.00;4961400;28;20495;-72
2023/09/30 07:26:06;;;;;;;6.65;2.67;;;;;;;20.83;54.76;102594.72;4962251;28;20515;-71
2023/09/30 07:28:32;;;;;;;6.50;2.50;;;;;;;20.84;54.62;102599.94;4961999;28;20084;-72
2023/09/30 07:30:58;;;;;;;5.65;2.65;;;;;;;20.84;54.52;102613.19;4961299;28;20030;-72
2023/09/30 07:33:23;;;;;;;5.90;2.40;;;;;;;20.84;54.79;102615.81;4961976;28;20073;-72
2023/09/30 07:35:49;;;;;;;5.30;2.50;;;;;;;20.84;54.63;102622.94;4962121;28;20280;-71
2023/09/30 07:38:14;;;;;;;5.47;2.65;;;;;;;20.87;54.87;102627.16;4961139;28;20455;-73
2023/09/30 07:40:40;;;;;;;5.43;2.70;;;;;;;20.87;54.92;102630.69;4960452;28;20035;-73
2023/09/30 07:43:05;;;;;;;4.82;2.50;;;;;;;20.87;54.81;102628.03;4961620;28;20089;-72
2023/09/30 07:45:31;;;;;;;5.55;2.17;;;;;;;20.89;55.07;102627.94;4961579;28;20034;-68
2023/09/30 07:47:58;;;;;;;6.18;2.58;;;;;;;20.86;55.20;102625.50;4960990;28;20061;-70
2023/09/30 07:50:24;;;;;;;5.60;2.60;;;;;;;20.85;55.16;102619.31;4961682;28;20097;-69
2023/09/30 07:52:49;;;;;;;6.65;2.45;;;;;;;20.82;54.99;102617.75;4960565;28;20675;-72
2023/09/30 07:55:15;;;;;;;6.80;2.40;;;;;;;20.87;55.34;102616.56;4965424;28;20039;-75
2023/09/30 07:57:42;;;;;;;7.05;2.22;;;;;;;20.87;55.02;102612.13;4948337;28;20063;-72
2023/09/30 08:00:15;;;;;;;6.70;2.50;;;;;;;20.90;55.34;102614.56;4966622;28;20026;-68
2023/09/30 08:02:41;;;;;;;6.50;2.28;;;;;;;20.92;55.13;102620.63;4965309;28;20037;-69
2023/09/30 08:05:07;;;;;;;13.98;2.67;;;;;;;20.92;55.44;102615.34;4930924;28;20054;-71
2023/09/30 08:07:33;;;;;;;6.60;2.55;;;;;;;20.94;55.68;102613.41;4967323;28;20073;-75
2023/09/30 08:09:59;;;;;;;5.28;2.50;;;;;;;20.99;55.54;102613.97;4969686;28;20049;-73
2023/09/30 08:12:24;;;;;;;7.45;2.55;;;;;;;21.01;55.56;102614.72;4965268;28;20034;-71
2023/09/30 08:14:51;;;;;;;5.82;2.45;;;;;;;21.02;55.64;102605.81;4949933;28;20479;-69
2023/09/30 08:17:17;;;;;;;8.95;2.92;;;;;;;21.05;55.45;102614.53;4969221;28;21019;-70
2023/09/30 08:19:44;;;;;;;5.30;2.17;;;;;;;21.00;55.63;102607.72;4964117;28;20063;-71
2023/09/30 08:22:09;;;;;;;6.90;2.50;;;;;;;20.90;55.68;102601.31;4932187;28;20034;-72
2023/09/30 08:24:35;;;;;;;6.95;2.38;;;;;;;20.83;56.13;102603.50;4965244;28;20101;-70
2023/09/30 08:27:01;;;;;;;7.20;2.63;;;;;;;20.80;56.50;102608.16;4964576;28;20118;-69
2023/09/30 08:29:26;;;;;;;7.00;2.53;;;;;;;20.77;56.58;102600.44;4947688;28;20039;-71
2023/09/30 08:31:51;;;;;;;6.33;2.50;;;;;;;20.74;56.45;102597.97;4966267;28;20027;-71
2023/09/30 08:34:19;;;;;;;6.82;2.63;;;;;;;20.73;56.84;102597.13;4967095;28;20269;-70
2023/09/30 08:36:45;;;;;;;7.55;2.83;;;;;;;20.73;56.83;102601.56;4964084;28;20056;-72
2023/09/30 08:39:10;;;;;;;7.07;2.35;;;;;;;20.72;56.94;102600.72;4965730;28;20483;-72
2023/09/30 08:41:35;;;;;;;6.30;2.42;;;;;;;20.74;57.04;102600.63;4946597;28;20035;-75
2023/09/30 08:44:03;;;;;;;6.03;2.60;;;;;;;20.73;57.11;102583.88;4965328;28;20038;-71
2023/09/30 08:46:33;;;;;;;4.85;2.40;;;;;;;20.73;57.30;102588.31;4962725;28;20045;-77
2023/09/30 08:49:02;;;;;;;6.47;2.45;;;;;;;20.74;57.00;102584.72;4964916;28;20073;-69
2023/09/30 08:51:29;;;;;;;6.82;2.53;;;;;;;20.71;57.34;102582.28;4931827;28;20092;-69
2023/09/30 08:53:56;;;;;;;6.22;2.28;;;;;;;20.71;57.10;102582.28;4930125;28;20109;-70
2023/09/30 08:56:28;;;;;;;8.63;2.40;;;;;;;20.71;57.16;102587.56;4926567;28;20066;-69
2023/09/30 08:58:58;;;;;;;6.75;2.60;;;;;;;20.71;57.49;102583.16;4945284;28;20035;-69
2023/09/30 09:01:27;;;;;;;5.80;2.50;;;;;;;20.71;56.97;102582.28;4943669;28;20027;-69
2023/09/30 09:03:53;;;;;;;7.50;2.10;;;;;;;20.72;57.31;102582.19;4945301;28;20069;-69
2023/09/30 09:06:22;;;;;;;7.45;2.30;;;;;;;20.73;56.97;102585.66;4951498;28;20110;-77
2023/09/30 09:08:48;;;;;;;4.70;2.13;;;;;;;20.76;57.33;102596.94;4944971;28;20042;-71
2023/09/30 09:11:14;;;;;;;7.65;2.60;;;;;;;20.78;57.08;102604.78;4944064;28;20035;-73
2023/09/30 09:13:55;;;;;;;6.68;2.45;;;;;;;20.77;57.53;102611.88;4945779;28;20070;-71
2023/09/30 09:16:23;;;;;;;7.65;2.30;;;;;;;20.77;57.43;102613.66;4930277;28;20046;-74
2023/09/30 09:18:49;;;;;;;5.95;2.28;;;;;;;20.76;57.50;102610.19;4946652;28;20501;-77
2023/09/30 09:21:17;;;;;;;7.50;2.60;;;;;;;20.78;57.43;102615.38;4947836;28;20066;-72
2023/09/30 09:23:47;;;;;;;8.10;2.40;;;;;;;20.76;57.56;102619.91;4948765;28;20031;-74
2023/09/30 09:26:49;;;;;;;6.63;2.78;;;;;;;20.77;57.14;102635.72;4945553;28;20310;-76
2023/09/30 09:29:15;;;;;;;8.30;2.50;;;;;;;20.78;57.45;102631.28;4944041;28;20027;-71
2023/09/30 09:31:40;;;;;;;6.90;2.50;;;;;;;20.83;57.42;102647.72;4940407;28;20035;-69
2023/09/30 09:34:14;;;;;;;8.15;2.30;;;;;;;20.80;57.11;102643.47;4945474;28;20039;-70
2023/09/30 09:36:41;;;;;;;5.22;2.20;;;;;;;20.81;57.46;102653.13;4944918;28;20039;-69
2023/09/30 09:39:07;;;;;;;6.90;2.40;;;;;;;20.80;57.19;102658.53;4943155;28;20381;-71
2023/09/30 09:41:48;;;;;;;8.90;2.45;;;;;;;20.80;57.20;102647.91;4945890;28;20130;-74
2023/09/30 09:44:14;;;;;;;6.78;2.40;;;;;;;20.80;57.33;102654.06;4944071;28;20031;-72
2023/09/30 09:46:39;;;;;;;5.85;2.50;;;;;;;20.80;57.55;102650.56;4944208;28;20034;-76
2023/09/30 09:49:05;;;;;;;8.88;2.50;;;;;;;20.81;57.36;102652.28;4944769;28;20114;-76
2023/09/30 09:51:30;;;;;;;6.32;2.33;;;;;;;20.79;57.30;102648.84;4943486;28;20524;-74
2023/09/30 09:53:56;;;;;;;6.20;2.45;;;;;;;20.80;57.19;102653.22;4943553;28;20607;-73
2023/09/30 09:56:21;;;;;;;5.82;2.28;;;;;;;20.83;57.40;102653.03;4951035;28;20078;-78
2023/09/30 09:58:48;;;;;;;6.03;2.22;;;;;;;20.83;57.33;102653.03;5002771;23;21141;-71
2023/09/30 10:01:13;;;;;;;5.53;2.40;;;;;;;20.83;56.86;102647.72;4971483;28;20038;-69
2023/09/30 10:03:39;;;;;;;5.38;2.50;;;;;;;20.83;57.30;102647.72;4970003;28;20502;-74
2023/09/30 10:06:05;;;;;;;7.18;3.13;;;;;;;20.83;57.11;102650.38;4967586;28;20031;-71
2023/09/30 10:08:43;;;;;;;8.27;2.42;;;;;;;20.83;57.13;102658.31;4965871;28;20041;-70
2023/09/30 10:11:16;;;;;;;8.40;2.40;;;;;;;20.84;57.19;102662.69;4964543;28;20041;-69
2023/09/30 10:14:03;;;;;;;5.82;2.20;;;;;;;20.89;57.09;102660.59;4962587;28;20121;-69
2023/09/30 10:16:37;;;;;;;7.60;2.55;;;;;;;20.87;57.16;102667.78;4962364;28;20027;-70
2023/09/30 10:19:12;;;;;;;;;;;;;;;20.89;57.00;102673.00;4967456;28;20042;-71
2023/09/30 10:21:38;;;;;;;5.72;2.67;;;;;;;20.88;56.90;102674.78;4963797;28;19914;-70
2023/09/30 10:24:25;;;;;;;12.18;2.80;;;;;;;20.88;57.08;102668.63;4963347;28;20117;-72
2023/09/30 10:27:31;;;;;;;6.70;2.65;;;;;;;20.87;57.13;102651.00;4937516;28;20081;-70
2023/09/30 10:29:58;;;;;;;6.57;2.50;;;;;;;20.91;56.82;102644.59;4888437;29;20475;-69
2023/09/30 10:32:59;;;;;;;5.80;2.17;;;;;;;20.91;57.23;102649.88;4948751;28;20047;-73
2023/09/30 10:35:27;;;;;;;9.38;2.60;;;;;;;20.93;56.88;102640.88;4962082;28;20030;-69
2023/09/30 10:38:22;;;;;;;6.03;2.63;;;;;;;20.96;56.68;102637.19;4961364;28;20039;-70
2023/09/30 10:40:48;;;;;;;7.68;2.42;;;;;;;21.18;56.16;102632.16;4959637;28;20035;-70
2023/09/30 10:43:43;;;;;;;7.50;2.65;;;;;;;21.27;55.66;102629.84;4962672;28;20042;-69
2023/09/30 10:46:26;;;;;;;6.30;2.35;;;;;;;21.34;55.66;102624.03;4948529;28;20068;-69
2023/09/30 10:48:52;;;;;;;9.70;2.67;;;;;;;21.40;55.41;102625.44;4962028;28;20046;-68
2023/09/30 10:51:21;;;;;;;6.65;2.78;;;;;;;21.37;55.55;102621.16;4961944;28;20038;-69
2023/09/30 10:53:56;;;;;;;9.00;3.25;;;;;;;21.39;55.64;102605.16;4961374;28;20089;-72
2023/09/30 10:56:23;;;;;;;7.90;3.08;;;;;;;21.38;55.74;102609.63;4961423;28;20053;-67
2023/09/30 10:58:51;;;;;;;10.20;3.00;;;;;;;21.40;55.42;102606.03;4961629;28;20062;-69
2023/09/30 11:01:20;;;;;;;8.82;3.30;;;;;;;21.41;55.58;102599.75;4962527;28;20507;-70
2023/09/30 11:03:46;;;;;;;11.15;3.05;;;;;;;21.42;55.45;102593.50;4963882;28;20057;-75
2023/09/30 11:06:20;;;;;;;6.50;3.03;;;;;;;21.42;55.43;102583.72;4962430;28;20039;-71
2023/09/30 11:08:51;;;;;;;7.07;2.92;;;;;;;21.44;55.37;102591.59;4960669;28;20085;-76
2023/09/30 11:11:16;;;;;;;7.53;3.22;;;;;;;21.45;55.45;102588.81;4963439;28;20081;-82
2023/09/30 11:13:42;;;;;;;7.78;2.92;;;;;;;21.46;55.37;102593.19;4962720;28;20070;-78
2023/09/30 11:16:08;;;;;;;10.32;2.83;;;;;;;21.45;55.66;102595.94;4962318;28;20098;-74
2023/09/30 11:18:35;;;;;;;7.85;2.75;;;;;;;21.47;55.42;102594.03;4962922;28;20026;-75
2023/09/30 11:21:10;;;;;;;5.57;2.13;;;;;;;21.43;55.31;102598.69;4961802;28;20066;-74
2023/09/30 11:23:37;;;;;;;7.20;2.72;;;;;;;21.45;55.72;102596.78;4961371;28;20499;-76
2023/09/30 11:26:02;;;;;;;6.65;2.60;;;;;;;21.47;55.34;102588.72;4961881;28;20038;-72